sensor_id;sensor_type;location;lat;lon;timestamp;P1;durP1;ratioP1;P2;durP2;ratioP2
81703;SDS011;71117;52.352;4.808;2023-08-31T00:01:02;5.35;;;1.70;;
81703;SDS011;71117;52.352;4.808;2023-08-31T00:03:31;5.03;;;1.88;;
81703;SDS011;71117;52.352;4.808;2023-08-31T00:05:57;4.53;;;1.98;;
81703;SDS011;71117;52.352;4.808;2023-08-31T00:08:22;3.58;;;1.63;;
81703;SDS011;71117;52.352;4.808;2023-08-31T00:10:54;5.70;;;1.77;;
81703;SDS011;71117;52.352;4.808;2023-08-31T00:13:23;2.92;;;1.60;;
81703;SDS011;71117;52.352;4.808;2023-08-31T00:15:49;3.83;;;2.00;;
81703;SDS011;71117;52.352;4.808;2023-08-31T00:18:14;4.70;;;1.95;;
81703;SDS011;71117;52.352;4.808;2023-08-31T00:20:41;4.00;;;1.92;;
81703;SDS011;71117;52.352;4.808;2023-08-31T00:23:07;5.47;;;1.98;;
81703;SDS011;71117;52.352;4.808;2023-08-31T00:25:32;4.35;;;1.98;;
81703;SDS011;71117;52.352;4.808;2023-08-31T00:27:58;2.78;;;1.67;;
81703;SDS011;71117;52.352;4.808;2023-08-31T00:30:29;6.10;;;2.50;;
81703;SDS011;71117;52.352;4.808;2023-08-31T00:32:55;7.90;;;1.83;;
81703;SDS011;71117;52.352;4.808;2023-08-31T00:35:24;6.38;;;2.00;;
81703;SDS011;71117;52.352;4.808;2023-08-31T00:37:51;10.60;;;2.20;;
81703;SDS011;71117;52.352;4.808;2023-08-31T00:40:16;4.68;;;1.90;;
81703;SDS011;71117;52.352;4.808;2023-08-31T00:42:41;2.88;;;1.60;;
81703;SDS011;71117;52.352;4.808;2023-08-31T00:45:07;4.60;;;2.15;;
81703;SDS011;71117;52.352;4.808;2023-08-31T00:47:33;6.13;;;2.00;;
81703;SDS011;71117;52.352;4.808;2023-08-31T00:49:59;2.90;;;1.35;;
81703;SDS011;71117;52.352;4.808;2023-08-31T00:52:25;8.80;;;1.80;;
81703;SDS011;71117;52.352;4.808;2023-08-31T00:54:50;8.50;;;2.08;;
81703;SDS011;71117;52.352;4.808;2023-08-31T00:57:17;5.78;;;1.83;;
81703;SDS011;71117;52.352;4.808;2023-08-31T00:59:43;7.65;;;1.52;;
81703;SDS011;71117;52.352;4.808;2023-08-31T01:03:09;6.18;;;1.73;;
81703;SDS011;71117;52.352;4.808;2023-08-31T01:13:24;5.60;;;1.70;;
81703;SDS011;71117;52.352;4.808;2023-08-31T01:15:54;7.47;;;1.73;;
81703;SDS011;71117;52.352;4.808;2023-08-31T01:18:24;3.63;;;1.40;;
81703;SDS011;71117;52.352;4.808;2023-08-31T01:23:29;4.53;;;1.33;;
81703;SDS011;71117;52.352;4.808;2023-08-31T01:26:00;6.25;;;1.40;;
81703;SDS011;71117;52.352;4.808;2023-08-31T01:28:26;5.38;;;1.42;;
81703;SDS011;71117;52.352;4.808;2023-08-31T01:30:52;6.43;;;1.42;;
81703;SDS011;71117;52.352;4.808;2023-08-31T01:33:17;10.23;;;1.98;;
81703;SDS011;71117;52.352;4.808;2023-08-31T01:35:43;9.30;;;1.42;;
81703;SDS011;71117;52.352;4.808;2023-08-31T01:38:15;9.32;;;1.10;;
81703;SDS011;71117;52.352;4.808;2023-08-31T01:40:45;8.27;;;1.75;;
81703;SDS011;71117;52.352;4.808;2023-08-31T01:43:19;6.80;;;1.23;;
81703;SDS011;71117;52.352;4.808;2023-08-31T01:45:46;7.20;;;2.33;;
81703;SDS011;71117;52.352;4.808;2023-08-31T01:48:13;4.25;;;1.00;;
81703;SDS011;71117;52.352;4.808;2023-08-31T01:50:39;7.75;;;1.45;;
81703;SDS011;71117;52.352;4.808;2023-08-31T01:53:05;8.65;;;1.65;;
81703;SDS011;71117;52.352;4.808;2023-08-31T01:55:31;9.82;;;1.80;;
81703;SDS011;71117;52.352;4.808;2023-08-31T01:57:57;11.07;;;1.30;;
81703;SDS011;71117;52.352;4.808;2023-08-31T02:00:22;6.20;;;1.50;;
81703;SDS011;71117;52.352;4.808;2023-08-31T02:02:48;7.80;;;1.95;;
81703;SDS011;71117;52.352;4.808;2023-08-31T02:05:14;7.38;;;1.80;;
81703;SDS011;71117;52.352;4.808;2023-08-31T02:07:39;7.20;;;1.50;;
81703;SDS011;71117;52.352;4.808;2023-08-31T02:10:05;7.55;;;1.48;;
81703;SDS011;71117;52.352;4.808;2023-08-31T02:12:31;5.72;;;1.63;;
81703;SDS011;71117;52.352;4.808;2023-08-31T02:14:57;6.72;;;1.60;;
81703;SDS011;71117;52.352;4.808;2023-08-31T02:17:22;3.03;;;0.93;;
81703;SDS011;71117;52.352;4.808;2023-08-31T02:19:48;5.50;;;1.15;;
81703;SDS011;71117;52.352;4.808;2023-08-31T02:22:13;3.17;;;1.30;;
81703;SDS011;71117;52.352;4.808;2023-08-31T02:24:38;7.80;;;1.40;;
81703;SDS011;71117;52.352;4.808;2023-08-31T02:27:04;5.60;;;1.48;;
81703;SDS011;71117;52.352;4.808;2023-08-31T02:29:29;5.25;;;1.50;;
81703;SDS011;71117;52.352;4.808;2023-08-31T02:31:54;4.53;;;1.08;;
81703;SDS011;71117;52.352;4.808;2023-08-31T02:34:20;6.63;;;1.20;;
81703;SDS011;71117;52.352;4.808;2023-08-31T02:36:45;8.38;;;1.55;;
81703;SDS011;71117;52.352;4.808;2023-08-31T02:39:10;5.05;;;1.02;;
81703;SDS011;71117;52.352;4.808;2023-08-31T02:41:36;6.22;;;1.10;;
81703;SDS011;71117;52.352;4.808;2023-08-31T02:44:01;7.88;;;1.77;;
81703;SDS011;71117;52.352;4.808;2023-08-31T02:46:26;5.18;;;1.10;;
81703;SDS011;71117;52.352;4.808;2023-08-31T02:48:52;9.13;;;1.20;;
81703;SDS011;71117;52.352;4.808;2023-08-31T02:51:17;10.25;;;1.23;;
81703;SDS011;71117;52.352;4.808;2023-08-31T02:53:43;4.50;;;0.70;;
81703;SDS011;71117;52.352;4.808;2023-08-31T02:56:08;3.60;;;0.88;;
81703;SDS011;71117;52.352;4.808;2023-08-31T02:58:33;9.35;;;0.80;;
81703;SDS011;71117;52.352;4.808;2023-08-31T03:01:08;6.32;;;0.60;;
81703;SDS011;71117;52.352;4.808;2023-08-31T03:03:36;9.68;;;1.05;;
81703;SDS011;71117;52.352;4.808;2023-08-31T03:06:02;6.50;;;1.00;;
81703;SDS011;71117;52.352;4.808;2023-08-31T03:08:27;4.05;;;0.70;;
81703;SDS011;71117;52.352;4.808;2023-08-31T03:10:53;7.10;;;1.10;;
81703;SDS011;71117;52.352;4.808;2023-08-31T03:13:18;12.20;;;1.60;;
81703;SDS011;71117;52.352;4.808;2023-08-31T03:15:43;3.42;;;0.80;;
81703;SDS011;71117;52.352;4.808;2023-08-31T03:18:09;12.15;;;1.25;;
81703;SDS011;71117;52.352;4.808;2023-08-31T03:20:34;3.47;;;0.60;;
81703;SDS011;71117;52.352;4.808;2023-08-31T03:22:59;6.18;;;1.00;;
81703;SDS011;71117;52.352;4.808;2023-08-31T03:25:27;2.40;;;0.60;;
81703;SDS011;71117;52.352;4.808;2023-08-31T03:27:52;6.07;;;0.63;;
81703;SDS011;71117;52.352;4.808;2023-08-31T03:30:17;4.25;;;0.68;;
81703;SDS011;71117;52.352;4.808;2023-08-31T03:32:43;2.45;;;0.57;;
81703;SDS011;71117;52.352;4.808;2023-08-31T03:35:08;4.88;;;0.65;;
81703;SDS011;71117;52.352;4.808;2023-08-31T03:37:34;1.67;;;0.60;;
81703;SDS011;71117;52.352;4.808;2023-08-31T03:39:59;4.32;;;0.57;;
81703;SDS011;71117;52.352;4.808;2023-08-31T03:42:24;4.18;;;0.52;;
81703;SDS011;71117;52.352;4.808;2023-08-31T03:44:50;3.25;;;0.55;;
81703;SDS011;71117;52.352;4.808;2023-08-31T03:47:15;7.05;;;0.65;;
81703;SDS011;71117;52.352;4.808;2023-08-31T03:49:40;5.03;;;0.50;;
81703;SDS011;71117;52.352;4.808;2023-08-31T03:52:06;3.75;;;0.50;;
81703;SDS011;71117;52.352;4.808;2023-08-31T03:54:31;3.63;;;0.80;;
81703;SDS011;71117;52.352;4.808;2023-08-31T03:56:56;4.72;;;0.88;;
81703;SDS011;71117;52.352;4.808;2023-08-31T03:59:22;2.80;;;0.77;;
81703;SDS011;71117;52.352;4.808;2023-08-31T04:01:47;4.80;;;0.45;;
81703;SDS011;71117;52.352;4.808;2023-08-31T04:04:13;3.88;;;0.70;;
81703;SDS011;71117;52.352;4.808;2023-08-31T04:06:38;5.85;;;0.70;;
81703;SDS011;71117;52.352;4.808;2023-08-31T04:09:03;4.70;;;0.60;;
81703;SDS011;71117;52.352;4.808;2023-08-31T04:11:29;5.88;;;1.15;;
81703;SDS011;71117;52.352;4.808;2023-08-31T04:13:54;7.38;;;1.10;;
81703;SDS011;71117;52.352;4.808;2023-08-31T04:16:20;4.63;;;0.90;;
81703;SDS011;71117;52.352;4.808;2023-08-31T04:18:46;4.90;;;0.85;;
81703;SDS011;71117;52.352;4.808;2023-08-31T04:21:16;5.03;;;0.80;;
81703;SDS011;71117;52.352;4.808;2023-08-31T04:23:41;5.00;;;1.02;;
81703;SDS011;71117;52.352;4.808;2023-08-31T04:26:10;6.22;;;1.00;;
81703;SDS011;71117;52.352;4.808;2023-08-31T04:28:37;7.88;;;1.00;;
81703;SDS011;71117;52.352;4.808;2023-08-31T04:31:06;4.47;;;1.30;;
81703;SDS011;71117;52.352;4.808;2023-08-31T04:33:33;5.63;;;1.20;;
81703;SDS011;71117;52.352;4.808;2023-08-31T04:35:59;5.82;;;1.52;;
81703;SDS011;71117;52.352;4.808;2023-08-31T04:38:24;7.78;;;1.20;;
81703;SDS011;71117;52.352;4.808;2023-08-31T04:40:50;8.32;;;1.42;;
81703;SDS011;71117;52.352;4.808;2023-08-31T04:43:15;3.05;;;1.00;;
81703;SDS011;71117;52.352;4.808;2023-08-31T04:45:40;5.40;;;1.20;;
81703;SDS011;71117;52.352;4.808;2023-08-31T04:48:06;15.82;;;1.45;;
81703;SDS011;71117;52.352;4.808;2023-08-31T04:50:31;6.32;;;1.10;;
81703;SDS011;71117;52.352;4.808;2023-08-31T04:52:57;8.20;;;1.30;;
81703;SDS011;71117;52.352;4.808;2023-08-31T04:55:23;5.47;;;1.00;;
81703;SDS011;71117;52.352;4.808;2023-08-31T04:57:48;5.63;;;0.70;;
81703;SDS011;71117;52.352;4.808;2023-08-31T05:00:14;3.67;;;0.77;;
81703;SDS011;71117;52.352;4.808;2023-08-31T05:02:39;5.40;;;0.70;;
81703;SDS011;71117;52.352;4.808;2023-08-31T05:05:05;2.63;;;0.80;;
81703;SDS011;71117;52.352;4.808;2023-08-31T05:07:30;2.72;;;0.60;;
81703;SDS011;71117;52.352;4.808;2023-08-31T05:09:56;4.95;;;0.70;;
81703;SDS011;71117;52.352;4.808;2023-08-31T05:12:22;5.22;;;0.80;;
81703;SDS011;71117;52.352;4.808;2023-08-31T05:14:47;2.05;;;0.43;;
81703;SDS011;71117;52.352;4.808;2023-08-31T05:17:12;3.85;;;0.40;;
81703;SDS011;71117;52.352;4.808;2023-08-31T05:19:38;2.15;;;0.40;;
81703;SDS011;71117;52.352;4.808;2023-08-31T05:22:03;2.17;;;0.75;;
81703;SDS011;71117;52.352;4.808;2023-08-31T05:24:29;2.40;;;0.63;;
81703;SDS011;71117;52.352;4.808;2023-08-31T05:26:54;2.97;;;0.52;;
81703;SDS011;71117;52.352;4.808;2023-08-31T05:29:20;1.42;;;0.40;;
81703;SDS011;71117;52.352;4.808;2023-08-31T05:31:45;1.10;;;0.60;;
81703;SDS011;71117;52.352;4.808;2023-08-31T05:34:10;3.00;;;0.73;;
81703;SDS011;71117;52.352;4.808;2023-08-31T05:36:40;2.20;;;0.47;;
81703;SDS011;71117;52.352;4.808;2023-08-31T05:39:06;1.73;;;0.60;;
81703;SDS011;71117;52.352;4.808;2023-08-31T05:41:31;2.75;;;0.40;;
81703;SDS011;71117;52.352;4.808;2023-08-31T05:43:56;2.17;;;0.45;;
81703;SDS011;71117;52.352;4.808;2023-08-31T05:46:22;4.55;;;0.60;;
81703;SDS011;71117;52.352;4.808;2023-08-31T05:48:47;1.67;;;0.60;;
81703;SDS011;71117;52.352;4.808;2023-08-31T05:51:13;3.30;;;0.70;;
81703;SDS011;71117;52.352;4.808;2023-08-31T05:53:38;2.80;;;0.77;;
81703;SDS011;71117;52.352;4.808;2023-08-31T05:56:03;5.03;;;0.70;;
81703;SDS011;71117;52.352;4.808;2023-08-31T05:58:35;3.20;;;0.80;;
81703;SDS011;71117;52.352;4.808;2023-08-31T06:01:02;2.13;;;0.80;;
81703;SDS011;71117;52.352;4.808;2023-08-31T06:03:28;12.02;;;1.33;;
81703;SDS011;71117;52.352;4.808;2023-08-31T06:05:54;1.38;;;0.85;;
81703;SDS011;71117;52.352;4.808;2023-08-31T06:08:20;3.05;;;0.93;;
81703;SDS011;71117;52.352;4.808;2023-08-31T06:10:46;4.80;;;1.23;;
81703;SDS011;71117;52.352;4.808;2023-08-31T06:13:11;2.45;;;1.23;;
81703;SDS011;71117;52.352;4.808;2023-08-31T06:15:37;8.98;;;1.67;;
81703;SDS011;71117;52.352;4.808;2023-08-31T06:18:02;6.07;;;1.63;;
81703;SDS011;71117;52.352;4.808;2023-08-31T06:20:27;4.40;;;1.70;;
81703;SDS011;71117;52.352;4.808;2023-08-31T06:22:53;5.40;;;1.95;;
81703;SDS011;71117;52.352;4.808;2023-08-31T06:25:18;7.78;;;1.42;;
81703;SDS011;71117;52.352;4.808;2023-08-31T06:27:44;8.68;;;1.25;;
81703;SDS011;71117;52.352;4.808;2023-08-31T06:30:09;7.53;;;1.52;;
81703;SDS011;71117;52.352;4.808;2023-08-31T06:32:41;5.75;;;1.35;;
81703;SDS011;71117;52.352;4.808;2023-08-31T06:35:08;4.85;;;1.77;;
81703;SDS011;71117;52.352;4.808;2023-08-31T06:37:33;7.68;;;1.48;;
81703;SDS011;71117;52.352;4.808;2023-08-31T06:39:58;5.65;;;1.50;;
81703;SDS011;71117;52.352;4.808;2023-08-31T06:42:24;4.38;;;1.40;;
81703;SDS011;71117;52.352;4.808;2023-08-31T06:44:49;5.80;;;1.40;;
81703;SDS011;71117;52.352;4.808;2023-08-31T06:47:14;6.68;;;1.50;;
81703;SDS011;71117;52.352;4.808;2023-08-31T06:49:42;12.25;;;1.73;;
81703;SDS011;71117;52.352;4.808;2023-08-31T06:52:07;9.20;;;1.30;;
81703;SDS011;71117;52.352;4.808;2023-08-31T06:54:33;8.02;;;1.40;;
81703;SDS011;71117;52.352;4.808;2023-08-31T06:56:59;6.60;;;1.40;;
81703;SDS011;71117;52.352;4.808;2023-08-31T06:59:24;6.68;;;1.50;;
81703;SDS011;71117;52.352;4.808;2023-08-31T07:01:49;8.73;;;1.38;;
81703;SDS011;71117;52.352;4.808;2023-08-31T07:04:15;3.35;;;1.10;;
81703;SDS011;71117;52.352;4.808;2023-08-31T07:06:40;7.78;;;1.23;;
81703;SDS011;71117;52.352;4.808;2023-08-31T07:09:06;3.80;;;1.50;;
81703;SDS011;71117;52.352;4.808;2023-08-31T07:11:33;9.90;;;2.08;;
81703;SDS011;71117;52.352;4.808;2023-08-31T07:13:58;9.57;;;2.13;;
81703;SDS011;71117;52.352;4.808;2023-08-31T07:16:24;10.57;;;2.00;;
81703;SDS011;71117;52.352;4.808;2023-08-31T07:18:50;9.73;;;2.13;;
81703;SDS011;71117;52.352;4.808;2023-08-31T07:21:15;8.98;;;1.63;;
81703;SDS011;71117;52.352;4.808;2023-08-31T07:23:40;4.53;;;1.10;;
81703;SDS011;71117;52.352;4.808;2023-08-31T07:26:06;6.90;;;1.50;;
81703;SDS011;71117;52.352;4.808;2023-08-31T07:28:31;12.95;;;2.30;;
81703;SDS011;71117;52.352;4.808;2023-08-31T07:31:00;5.47;;;1.13;;
81703;SDS011;71117;52.352;4.808;2023-08-31T07:33:29;4.68;;;1.48;;
81703;SDS011;71117;52.352;4.808;2023-08-31T07:35:59;9.90;;;1.95;;
81703;SDS011;71117;52.352;4.808;2023-08-31T07:38:25;7.88;;;1.52;;
81703;SDS011;71117;52.352;4.808;2023-08-31T07:40:52;6.10;;;1.83;;
81703;SDS011;71117;52.352;4.808;2023-08-31T07:43:18;13.27;;;1.67;;
81703;SDS011;71117;52.352;4.808;2023-08-31T07:45:43;10.30;;;1.70;;
81703;SDS011;71117;52.352;4.808;2023-08-31T07:48:08;5.32;;;1.10;;
81703;SDS011;71117;52.352;4.808;2023-08-31T07:50:33;9.25;;;1.52;;
81703;SDS011;71117;52.352;4.808;2023-08-31T07:53:02;6.57;;;1.23;;
81703;SDS011;71117;52.352;4.808;2023-08-31T07:55:28;7.35;;;0.90;;
81703;SDS011;71117;52.352;4.808;2023-08-31T07:57:54;7.40;;;1.50;;
81703;SDS011;71117;52.352;4.808;2023-08-31T08:00:19;6.13;;;1.30;;
81703;SDS011;71117;52.352;4.808;2023-08-31T08:02:45;2.05;;;1.00;;
81703;SDS011;71117;52.352;4.808;2023-08-31T08:05:11;5.32;;;1.60;;
81703;SDS011;71117;52.352;4.808;2023-08-31T08:07:36;6.82;;;1.55;;
81703;SDS011;71117;52.352;4.808;2023-08-31T08:10:02;7.50;;;1.30;;
81703;SDS011;71117;52.352;4.808;2023-08-31T08:12:27;4.97;;;0.90;;
81703;SDS011;71117;52.352;4.808;2023-08-31T08:15:01;5.93;;;0.77;;
81703;SDS011;71117;52.352;4.808;2023-08-31T08:17:27;5.40;;;1.10;;
81703;SDS011;71117;52.352;4.808;2023-08-31T08:19:52;3.83;;;1.00;;
81703;SDS011;71117;52.352;4.808;2023-08-31T08:22:18;5.50;;;1.33;;
81703;SDS011;71117;52.352;4.808;2023-08-31T08:24:43;5.55;;;1.10;;
81703;SDS011;71117;52.352;4.808;2023-08-31T08:27:08;7.38;;;1.20;;
81703;SDS011;71117;52.352;4.808;2023-08-31T08:29:34;6.00;;;1.10;;
81703;SDS011;71117;52.352;4.808;2023-08-31T08:31:59;5.25;;;1.00;;
81703;SDS011;71117;52.352;4.808;2023-08-31T08:34:25;3.50;;;0.90;;
81703;SDS011;71117;52.352;4.808;2023-08-31T08:36:51;8.77;;;1.00;;
81703;SDS011;71117;52.352;4.808;2023-08-31T08:39:17;6.95;;;1.67;;
81703;SDS011;71117;52.352;4.808;2023-08-31T08:41:43;7.43;;;0.80;;
81703;SDS011;71117;52.352;4.808;2023-08-31T08:44:09;7.47;;;1.25;;
81703;SDS011;71117;52.352;4.808;2023-08-31T08:46:35;5.20;;;1.08;;
81703;SDS011;71117;52.352;4.808;2023-08-31T08:49:02;6.22;;;1.08;;
81703;SDS011;71117;52.352;4.808;2023-08-31T08:51:30;7.32;;;1.15;;
81703;SDS011;71117;52.352;4.808;2023-08-31T08:53:57;5.65;;;1.20;;
81703;SDS011;71117;52.352;4.808;2023-08-31T08:56:24;4.35;;;0.73;;
81703;SDS011;71117;52.352;4.808;2023-08-31T08:58:50;3.50;;;0.73;;
81703;SDS011;71117;52.352;4.808;2023-08-31T09:01:15;6.65;;;1.33;;
81703;SDS011;71117;52.352;4.808;2023-08-31T09:03:42;3.88;;;0.95;;
81703;SDS011;71117;52.352;4.808;2023-08-31T09:06:08;5.45;;;1.20;;
81703;SDS011;71117;52.352;4.808;2023-08-31T09:08:35;6.15;;;1.70;;
81703;SDS011;71117;52.352;4.808;2023-08-31T09:11:02;2.92;;;0.80;;
81703;SDS011;71117;52.352;4.808;2023-08-31T09:13:28;5.97;;;1.23;;
81703;SDS011;71117;52.352;4.808;2023-08-31T09:15:54;2.72;;;0.65;;
81703;SDS011;71117;52.352;4.808;2023-08-31T09:18:23;2.80;;;0.93;;
81703;SDS011;71117;52.352;4.808;2023-08-31T09:20:50;5.65;;;1.05;;
81703;SDS011;71117;52.352;4.808;2023-08-31T09:23:16;4.32;;;1.20;;
81703;SDS011;71117;52.352;4.808;2023-08-31T09:25:46;3.45;;;1.08;;
81703;SDS011;71117;52.352;4.808;2023-08-31T09:28:21;5.15;;;1.80;;
81703;SDS011;71117;52.352;4.808;2023-08-31T09:30:48;7.32;;;0.90;;
81703;SDS011;71117;52.352;4.808;2023-08-31T09:33:15;3.35;;;0.98;;
81703;SDS011;71117;52.352;4.808;2023-08-31T09:35:48;4.30;;;1.00;;
81703;SDS011;71117;52.352;4.808;2023-08-31T09:38:15;5.22;;;0.82;;
81703;SDS011;71117;52.352;4.808;2023-08-31T09:40:41;5.75;;;0.77;;
81703;SDS011;71117;52.352;4.808;2023-08-31T09:43:07;5.90;;;0.80;;
81703;SDS011;71117;52.352;4.808;2023-08-31T09:45:33;9.30;;;0.93;;
81703;SDS011;71117;52.352;4.808;2023-08-31T09:47:59;3.08;;;0.90;;
81703;SDS011;71117;52.352;4.808;2023-08-31T09:50:28;3.92;;;0.68;;
81703;SDS011;71117;52.352;4.808;2023-08-31T09:52:56;7.32;;;0.90;;
81703;SDS011;71117;52.352;4.808;2023-08-31T09:55:26;4.60;;;0.95;;
81703;SDS011;71117;52.352;4.808;2023-08-31T09:57:53;4.18;;;1.13;;
81703;SDS011;71117;52.352;4.808;2023-08-31T10:00:21;7.55;;;1.08;;
81703;SDS011;71117;52.352;4.808;2023-08-31T10:02:47;9.88;;;1.15;;
81703;SDS011;71117;52.352;4.808;2023-08-31T10:05:14;3.33;;;0.85;;
81703;SDS011;71117;52.352;4.808;2023-08-31T10:07:40;3.55;;;0.88;;
81703;SDS011;71117;52.352;4.808;2023-08-31T10:10:07;3.33;;;0.77;;
81703;SDS011;71117;52.352;4.808;2023-08-31T10:12:33;6.07;;;1.13;;
81703;SDS011;71117;52.352;4.808;2023-08-31T10:15:01;6.43;;;1.02;;
81703;SDS011;71117;52.352;4.808;2023-08-31T10:17:26;5.45;;;0.93;;
81703;SDS011;71117;52.352;4.808;2023-08-31T10:19:53;5.70;;;0.98;;
81703;SDS011;71117;52.352;4.808;2023-08-31T10:22:19;5.93;;;0.80;;
81703;SDS011;71117;52.352;4.808;2023-08-31T10:27:40;5.07;;;0.93;;
81703;SDS011;71117;52.352;4.808;2023-08-31T10:33:01;5.32;;;0.93;;
81703;SDS011;71117;52.352;4.808;2023-08-31T10:35:52;5.85;;;0.90;;
81703;SDS011;71117;52.352;4.808;2023-08-31T10:38:28;7.68;;;1.35;;
81703;SDS011;71117;52.352;4.808;2023-08-31T10:46:30;1.92;;;0.80;;
81703;SDS011;71117;52.352;4.808;2023-08-31T10:49:14;5.45;;;0.77;;
81703;SDS011;71117;52.352;4.808;2023-08-31T10:51:43;3.72;;;0.80;;
81703;SDS011;71117;52.352;4.808;2023-08-31T10:54:25;4.38;;;0.80;;
81703;SDS011;71117;52.352;4.808;2023-08-31T10:59:46;3.47;;;0.88;;
81703;SDS011;71117;52.352;4.808;2023-08-31T11:04:59;4.25;;;0.90;;
81703;SDS011;71117;52.352;4.808;2023-08-31T11:07:30;2.42;;;0.80;;
81703;SDS011;71117;52.352;4.808;2023-08-31T11:10:12;5.65;;;1.00;;
81703;SDS011;71117;52.352;4.808;2023-08-31T11:12:45;5.70;;;1.10;;
81703;SDS011;71117;52.352;4.808;2023-08-31T11:15:16;3.85;;;0.82;;
81703;SDS011;71117;52.352;4.808;2023-08-31T11:17:42;4.35;;;0.85;;
81703;SDS011;71117;52.352;4.808;2023-08-31T11:20:09;4.60;;;0.85;;
81703;SDS011;71117;52.352;4.808;2023-08-31T11:22:39;3.55;;;1.20;;
81703;SDS011;71117;52.352;4.808;2023-08-31T11:25:07;3.17;;;0.65;;
81703;SDS011;71117;52.352;4.808;2023-08-31T11:27:33;5.68;;;1.02;;
81703;SDS011;71117;52.352;4.808;2023-08-31T11:29:59;4.03;;;0.80;;
81703;SDS011;71117;52.352;4.808;2023-08-31T11:32:24;4.47;;;0.98;;
81703;SDS011;71117;52.352;4.808;2023-08-31T11:34:50;4.65;;;0.88;;
81703;SDS011;71117;52.352;4.808;2023-08-31T11:37:15;4.65;;;1.10;;
81703;SDS011;71117;52.352;4.808;2023-08-31T11:39:48;2.65;;;1.00;;
81703;SDS011;71117;52.352;4.808;2023-08-31T11:42:18;3.90;;;1.05;;
81703;SDS011;71117;52.352;4.808;2023-08-31T11:44:46;2.15;;;0.70;;
81703;SDS011;71117;52.352;4.808;2023-08-31T11:47:13;2.50;;;1.20;;
81703;SDS011;71117;52.352;4.808;2023-08-31T11:49:40;4.47;;;1.02;;
81703;SDS011;71117;52.352;4.808;2023-08-31T11:52:06;1.50;;;0.70;;
81703;SDS011;71117;52.352;4.808;2023-08-31T11:54:36;4.55;;;0.70;;
81703;SDS011;71117;52.352;4.808;2023-08-31T11:57:02;4.03;;;1.10;;
81703;SDS011;71117;52.352;4.808;2023-08-31T11:59:28;2.38;;;0.68;;
81703;SDS011;71117;52.352;4.808;2023-08-31T12:01:53;4.43;;;1.00;;
81703;SDS011;71117;52.352;4.808;2023-08-31T12:04:21;3.97;;;1.02;;
81703;SDS011;71117;52.352;4.808;2023-08-31T12:06:53;1.40;;;0.60;;
81703;SDS011;71117;52.352;4.808;2023-08-31T12:09:31;2.53;;;0.95;;
81703;SDS011;71117;52.352;4.808;2023-08-31T12:11:57;6.32;;;1.08;;
81703;SDS011;71117;52.352;4.808;2023-08-31T12:14:24;6.13;;;1.02;;
81703;SDS011;71117;52.352;4.808;2023-08-31T12:16:50;3.20;;;0.90;;
81703;SDS011;71117;52.352;4.808;2023-08-31T12:19:17;1.83;;;0.82;;
81703;SDS011;71117;52.352;4.808;2023-08-31T12:21:43;2.78;;;0.93;;
81703;SDS011;71117;52.352;4.808;2023-08-31T12:24:11;3.53;;;1.13;;
81703;SDS011;71117;52.352;4.808;2023-08-31T12:26:37;1.55;;;0.52;;
81703;SDS011;71117;52.352;4.808;2023-08-31T12:29:03;4.13;;;1.00;;
81703;SDS011;71117;52.352;4.808;2023-08-31T12:31:32;3.65;;;1.00;;
81703;SDS011;71117;52.352;4.808;2023-08-31T12:33:58;2.47;;;0.80;;
81703;SDS011;71117;52.352;4.808;2023-08-31T12:36:25;2.85;;;0.80;;
81703;SDS011;71117;52.352;4.808;2023-08-31T12:38:51;2.42;;;0.80;;
81703;SDS011;71117;52.352;4.808;2023-08-31T12:41:16;2.78;;;0.68;;
81703;SDS011;71117;52.352;4.808;2023-08-31T12:43:42;3.50;;;0.85;;
81703;SDS011;71117;52.352;4.808;2023-08-31T12:46:08;3.75;;;1.08;;
81703;SDS011;71117;52.352;4.808;2023-08-31T12:48:34;4.88;;;0.93;;
81703;SDS011;71117;52.352;4.808;2023-08-31T12:51:00;1.90;;;0.60;;
81703;SDS011;71117;52.352;4.808;2023-08-31T12:53:25;4.78;;;1.00;;
81703;SDS011;71117;52.352;4.808;2023-08-31T12:55:51;2.53;;;0.60;;
81703;SDS011;71117;52.352;4.808;2023-08-31T12:58:17;3.90;;;0.80;;
81703;SDS011;71117;52.352;4.808;2023-08-31T13:00:43;2.38;;;0.90;;
81703;SDS011;71117;52.352;4.808;2023-08-31T13:03:08;4.85;;;0.70;;
81703;SDS011;71117;52.352;4.808;2023-08-31T13:05:34;4.78;;;0.77;;
81703;SDS011;71117;52.352;4.808;2023-08-31T13:08:03;2.05;;;0.70;;
81703;SDS011;71117;52.352;4.808;2023-08-31T13:10:30;2.80;;;0.73;;
81703;SDS011;71117;52.352;4.808;2023-08-31T13:12:56;2.47;;;0.75;;
81703;SDS011;71117;52.352;4.808;2023-08-31T13:15:21;5.53;;;0.70;;
81703;SDS011;71117;52.352;4.808;2023-08-31T13:17:47;2.08;;;0.63;;
81703;SDS011;71117;52.352;4.808;2023-08-31T13:20:13;2.05;;;0.68;;
81703;SDS011;71117;52.352;4.808;2023-08-31T13:22:38;3.25;;;0.70;;
81703;SDS011;71117;52.352;4.808;2023-08-31T13:25:04;3.45;;;0.95;;
81703;SDS011;71117;52.352;4.808;2023-08-31T13:27:30;2.58;;;0.63;;
81703;SDS011;71117;52.352;4.808;2023-08-31T13:29:58;2.22;;;0.60;;
81703;SDS011;71117;52.352;4.808;2023-08-31T13:32:23;3.83;;;0.70;;
81703;SDS011;71117;52.352;4.808;2023-08-31T13:34:48;3.53;;;0.93;;
81703;SDS011;71117;52.352;4.808;2023-08-31T13:37:14;1.38;;;0.65;;
81703;SDS011;71117;52.352;4.808;2023-08-31T13:39:39;3.45;;;0.80;;
81703;SDS011;71117;52.352;4.808;2023-08-31T13:42:05;2.80;;;0.70;;
81703;SDS011;71117;52.352;4.808;2023-08-31T13:44:31;2.33;;;0.93;;
81703;SDS011;71117;52.352;4.808;2023-08-31T13:46:57;2.60;;;0.68;;
81703;SDS011;71117;52.352;4.808;2023-08-31T13:49:23;4.03;;;0.95;;
81703;SDS011;71117;52.352;4.808;2023-08-31T13:51:48;3.90;;;0.82;;
81703;SDS011;71117;52.352;4.808;2023-08-31T13:54:14;2.10;;;0.60;;
81703;SDS011;71117;52.352;4.808;2023-08-31T13:56:39;3.65;;;0.80;;
81703;SDS011;71117;52.352;4.808;2023-08-31T13:59:04;2.35;;;0.70;;
81703;SDS011;71117;52.352;4.808;2023-08-31T14:01:30;2.28;;;0.60;;
81703;SDS011;71117;52.352;4.808;2023-08-31T14:03:55;3.97;;;0.68;;
81703;SDS011;71117;52.352;4.808;2023-08-31T14:06:21;1.73;;;0.75;;
81703;SDS011;71117;52.352;4.808;2023-08-31T14:08:46;2.08;;;0.80;;
81703;SDS011;71117;52.352;4.808;2023-08-31T14:11:12;2.78;;;0.85;;
81703;SDS011;71117;52.352;4.808;2023-08-31T14:13:38;4.80;;;0.80;;
81703;SDS011;71117;52.352;4.808;2023-08-31T14:16:04;3.30;;;0.88;;
81703;SDS011;71117;52.352;4.808;2023-08-31T14:18:29;3.50;;;0.73;;
81703;SDS011;71117;52.352;4.808;2023-08-31T14:20:56;2.83;;;0.75;;
81703;SDS011;71117;52.352;4.808;2023-08-31T14:23:23;2.22;;;0.80;;
81703;SDS011;71117;52.352;4.808;2023-08-31T14:25:49;2.65;;;0.63;;
81703;SDS011;71117;52.352;4.808;2023-08-31T14:28:14;2.42;;;0.70;;
81703;SDS011;71117;52.352;4.808;2023-08-31T14:30:40;4.53;;;1.10;;
81703;SDS011;71117;52.352;4.808;2023-08-31T14:33:05;2.17;;;0.73;;
81703;SDS011;71117;52.352;4.808;2023-08-31T14:35:39;2.78;;;0.70;;
81703;SDS011;71117;52.352;4.808;2023-08-31T14:38:05;1.60;;;0.60;;
81703;SDS011;71117;52.352;4.808;2023-08-31T14:40:30;1.48;;;0.70;;
81703;SDS011;71117;52.352;4.808;2023-08-31T14:42:59;3.58;;;0.63;;
81703;SDS011;71117;52.352;4.808;2023-08-31T14:45:25;1.77;;;0.65;;
81703;SDS011;71117;52.352;4.808;2023-08-31T14:47:50;1.70;;;0.60;;
81703;SDS011;71117;52.352;4.808;2023-08-31T14:50:16;4.50;;;0.80;;
81703;SDS011;71117;52.352;4.808;2023-08-31T14:52:41;2.25;;;0.63;;
81703;SDS011;71117;52.352;4.808;2023-08-31T14:55:06;3.30;;;0.73;;
81703;SDS011;71117;52.352;4.808;2023-08-31T14:57:32;1.73;;;0.80;;
81703;SDS011;71117;52.352;4.808;2023-08-31T14:59:57;1.80;;;0.70;;
81703;SDS011;71117;52.352;4.808;2023-08-31T15:02:24;5.85;;;0.90;;
81703;SDS011;71117;52.352;4.808;2023-08-31T15:04:49;3.40;;;0.80;;
81703;SDS011;71117;52.352;4.808;2023-08-31T15:07:15;2.90;;;0.77;;
81703;SDS011;71117;52.352;4.808;2023-08-31T15:09:42;2.83;;;1.05;;
81703;SDS011;71117;52.352;4.808;2023-08-31T15:12:07;2.53;;;0.70;;